createdAt,value
2023-04-30T00:01:40.687Z,6.18
2023-04-30T00:04:42.228Z,6.63
2023-04-30T00:07:43.884Z,4.93
2023-04-30T00:10:45.552Z,6.05
2023-04-30T00:13:47.131Z,5.65
2023-04-30T00:16:49.370Z,5.80
2023-04-30T00:19:51.441Z,6.27
2023-04-30T00:22:55.344Z,5.73
2023-04-30T00:25:57.188Z,7.32
2023-04-30T00:28:58.824Z,4.60
2023-04-30T00:32:01.455Z,6.65
2023-04-30T00:35:03.478Z,6.67
2023-04-30T00:38:05.194Z,4.40
2023-04-30T00:41:06.772Z,6.28
2023-04-30T00:44:08.555Z,7.35
2023-04-30T00:47:10.991Z,10.52
2023-04-30T00:50:15.258Z,6.87
2023-04-30T00:53:17.499Z,8.60
2023-04-30T00:56:18.938Z,5.25
2023-04-30T00:59:21.682Z,6.00
2023-04-30T01:02:24.265Z,6.43
2023-04-30T01:05:26.164Z,5.90
2023-04-30T01:08:27.861Z,5.30
2023-04-30T01:11:41.085Z,5.95
2023-04-30T01:14:54.476Z,6.22
2023-04-30T01:18:02.651Z,4.75
2023-04-30T01:21:07.663Z,4.73
2023-04-30T01:24:41.544Z,5.80
2023-04-30T01:28:08.423Z,3.55
2023-04-30T01:31:13.909Z,5.78
2023-04-30T01:34:15.749Z,5.20
2023-04-30T01:37:24.662Z,5.03
2023-04-30T01:40:35.597Z,5.63
2023-04-30T01:43:47.022Z,6.05
2023-04-30T01:46:58.602Z,4.78
2023-04-30T01:50:11.876Z,6.60
2023-04-30T01:53:19.545Z,5.00
2023-04-30T01:56:27.884Z,4.70
2023-04-30T01:59:34.742Z,5.30
2023-04-30T02:02:36.463Z,4.80
2023-04-30T02:09:04.776Z,6.63
2023-04-30T02:12:06.894Z,5.77
2023-04-30T02:15:10.221Z,6.18
2023-04-30T02:18:11.785Z,5.63
2023-04-30T02:21:13.673Z,6.97
2023-04-30T02:24:15.145Z,6.30
2023-04-30T02:27:17.018Z,5.50
2023-04-30T02:30:20.221Z,5.00
2023-04-30T02:33:22.026Z,5.55
2023-04-30T02:36:26.758Z,8.20
2023-04-30T02:39:28.333Z,5.37
2023-04-30T02:42:30.195Z,4.67
2023-04-30T02:45:32.399Z,6.68
2023-04-30T02:48:34.365Z,7.10
2023-04-30T02:51:35.779Z,6.28
2023-04-30T02:54:37.759Z,5.57
2023-04-30T02:57:39.403Z,6.57
2023-04-30T03:00:41.799Z,5.75
2023-04-30T03:03:43.665Z,5.93
2023-04-30T03:06:45.382Z,6.60
2023-04-30T03:09:47.289Z,5.27
2023-04-30T03:12:48.800Z,6.70
2023-04-30T03:15:56.428Z,6.30
2023-04-30T03:18:58.018Z,6.13
2023-04-30T03:22:02.401Z,6.47
2023-04-30T03:25:04.863Z,7.00
2023-04-30T03:28:06.328Z,8.80
2023-04-30T03:31:08.633Z,6.25
2023-04-30T03:34:10.784Z,6.53
2023-04-30T03:37:12.703Z,6.07
2023-04-30T03:40:14.238Z,7.13
2023-04-30T03:43:16.022Z,8.85
2023-04-30T03:46:18.384Z,5.10
2023-04-30T03:49:20.389Z,6.00
2023-04-30T03:52:22.170Z,6.37
2023-04-30T03:55:23.977Z,7.22
2023-04-30T03:58:25.753Z,7.97
2023-04-30T04:01:29.568Z,7.57
2023-04-30T04:04:31.328Z,8.73
2023-04-30T04:07:33.325Z,7.13
2023-04-30T04:10:35.210Z,5.13
2023-04-30T04:13:37.320Z,6.35
2023-04-30T04:16:39.542Z,5.47
2023-04-30T04:19:41.582Z,7.40
2023-04-30T04:22:43.332Z,7.93
2023-04-30T04:25:48.878Z,6.55
2023-04-30T04:28:51.205Z,5.38
2023-04-30T04:31:54.708Z,5.75
2023-04-30T04:34:59.453Z,7.32
2023-04-30T04:38:01.434Z,6.57
2023-04-30T04:41:02.999Z,6.80
2023-04-30T04:44:05.370Z,6.30
2023-04-30T04:47:07.851Z,6.45
2023-04-30T04:50:10.553Z,7.97
2023-04-30T04:53:12.890Z,7.13
2023-04-30T04:56:14.593Z,7.55
2023-04-30T04:59:17.941Z,6.95
2023-04-30T05:02:20.567Z,5.35
2023-04-30T05:05:22.167Z,6.97
2023-04-30T05:08:23.600Z,7.87
2023-04-30T05:11:25.099Z,7.43
2023-04-30T05:14:26.820Z,8.68
2023-04-30T05:17:28.977Z,6.05
2023-04-30T05:20:30.801Z,10.18
2023-04-30T05:23:32.425Z,5.77
2023-04-30T05:26:33.881Z,6.18
2023-04-30T05:29:35.701Z,8.48
2023-04-30T05:32:37.907Z,6.63
2023-04-30T05:35:39.679Z,7.65
2023-04-30T05:38:41.819Z,7.37
2023-04-30T05:41:43.621Z,8.32
2023-04-30T05:44:45.542Z,7.47
2023-04-30T05:47:47.955Z,8.48
2023-04-30T05:50:51.074Z,6.70
2023-04-30T05:53:52.523Z,7.73
2023-04-30T05:56:54.188Z,6.97
2023-04-30T05:59:55.713Z,9.82
2023-04-30T06:02:58.419Z,8.65
2023-04-30T06:06:00.042Z,6.40
2023-04-30T06:09:01.828Z,6.50
2023-04-30T06:12:03.588Z,6.90
2023-04-30T06:15:06.940Z,6.97
2023-04-30T06:18:09.086Z,7.13
2023-04-30T06:21:10.894Z,6.97
2023-04-30T06:24:12.420Z,8.07
2023-04-30T06:27:14.028Z,6.68
2023-04-30T06:30:15.608Z,9.68
2023-04-30T06:33:17.843Z,6.97
2023-04-30T06:36:22.398Z,8.82
2023-04-30T06:39:24.108Z,7.43
2023-04-30T06:42:25.702Z,7.65
2023-04-30T06:45:28.169Z,6.82
2023-04-30T06:48:30.793Z,6.72
2023-04-30T06:51:34.523Z,6.53
2023-04-30T06:54:36.066Z,5.17
2023-04-30T06:57:37.984Z,6.25
2023-04-30T07:00:39.689Z,5.97
2023-04-30T07:03:42.026Z,7.95
2023-04-30T07:06:43.652Z,7.68
2023-04-30T07:09:45.183Z,5.57
2023-04-30T07:12:46.562Z,9.07
2023-04-30T07:15:48.112Z,7.20
2023-04-30T07:18:50.370Z,7.57
2023-04-30T07:21:51.782Z,7.15
2023-04-30T07:24:53.105Z,6.87
2023-04-30T07:27:54.959Z,6.72
2023-04-30T07:30:56.240Z,6.53
2023-04-30T07:33:58.432Z,8.70
2023-04-30T07:37:00.418Z,6.90
2023-04-30T07:40:02.523Z,8.70
2023-04-30T07:43:04.357Z,7.43
2023-04-30T07:46:05.736Z,5.82
2023-04-30T07:49:07.801Z,5.78
2023-04-30T07:52:10.345Z,7.97
2023-04-30T07:55:11.701Z,6.60
2023-04-30T07:58:12.991Z,7.57
2023-04-30T08:01:15.139Z,6.63
2023-04-30T08:04:17.113Z,6.03
2023-04-30T08:07:20.364Z,6.10
2023-04-30T08:10:21.813Z,6.20
2023-04-30T08:13:23.146Z,7.05
2023-04-30T08:16:24.559Z,5.20
2023-04-30T08:19:26.617Z,5.78
2023-04-30T08:22:27.995Z,7.72
2023-04-30T08:25:30.859Z,5.80
2023-04-30T08:28:32.125Z,5.70
2023-04-30T08:31:33.710Z,6.72
2023-04-30T08:34:35.701Z,5.95
2023-04-30T08:37:36.996Z,6.22
2023-04-30T08:40:51.030Z,4.63
2023-04-30T08:43:53.685Z,5.22
2023-04-30T08:46:57.245Z,6.70
2023-04-30T08:49:59.697Z,6.32
2023-04-30T08:53:02.141Z,5.82
2023-04-30T08:56:04.326Z,5.73
2023-04-30T08:59:05.646Z,5.78
2023-04-30T09:02:09.281Z,5.75
2023-04-30T09:05:13.403Z,4.32
2023-04-30T09:08:18.282Z,4.90
2023-04-30T09:11:27.257Z,6.20
2023-04-30T09:14:28.838Z,5.18
2023-04-30T09:17:30.872Z,5.00
2023-04-30T09:20:33.375Z,4.57
2023-04-30T09:23:34.795Z,6.05
2023-04-30T09:26:38.371Z,3.57
2023-04-30T09:29:39.688Z,6.07
2023-04-30T09:32:54.754Z,5.40
2023-04-30T09:35:57.053Z,5.05
2023-04-30T09:39:08.880Z,4.15
2023-04-30T09:42:11.542Z,6.03
2023-04-30T09:45:12.883Z,3.40
2023-04-30T09:48:17.721Z,6.22
2023-04-30T09:51:23.226Z,5.30
2023-04-30T09:54:26.567Z,3.20
2023-04-30T09:57:30.962Z,5.50
2023-04-30T10:00:34.268Z,4.43
2023-04-30T10:03:36.246Z,4.83
2023-04-30T10:06:39.107Z,5.50
2023-04-30T10:09:44.559Z,4.10
2023-04-30T10:12:50.956Z,5.47
2023-04-30T10:15:58.348Z,4.40
2023-04-30T10:19:06.919Z,5.23
2023-04-30T10:22:10.398Z,5.57
2023-04-30T10:25:13.006Z,6.28
2023-04-30T10:28:14.595Z,5.80
2023-04-30T10:31:18.536Z,5.13
2023-04-30T10:34:27.874Z,5.67
2023-04-30T10:37:36.206Z,4.93
2023-04-30T10:40:37.742Z,4.18
2023-04-30T10:43:39.141Z,3.67
2023-04-30T10:46:40.937Z,6.10
2023-04-30T10:49:47.385Z,5.57
2023-04-30T10:53:02.701Z,4.72
2023-04-30T10:56:06.677Z,7.20
2023-04-30T10:59:08.683Z,6.20
2023-04-30T11:02:11.117Z,6.47
2023-04-30T11:05:14.033Z,6.43
2023-04-30T11:08:16.259Z,7.57
2023-04-30T11:11:20.253Z,7.47
2023-04-30T11:14:22.216Z,5.32
2023-04-30T11:17:24.309Z,6.32
2023-04-30T11:20:26.355Z,5.70
2023-04-30T11:23:40.057Z,7.00
2023-04-30T11:27:05.211Z,5.25
2023-04-30T11:30:12.446Z,6.78
2023-04-30T11:33:14.310Z,6.13
2023-04-30T11:36:16.466Z,6.30
2023-04-30T11:39:18.794Z,5.82
2023-04-30T11:42:20.533Z,6.20
2023-04-30T11:45:22.664Z,5.55
2023-04-30T11:48:24.012Z,5.38
2023-04-30T11:51:26.451Z,6.60
2023-04-30T11:54:31.401Z,7.20
2023-04-30T11:57:35.384Z,8.27
2023-04-30T12:00:37.511Z,7.38
2023-04-30T12:03:43.533Z,6.03
2023-04-30T12:06:44.954Z,6.40
2023-04-30T12:09:54.256Z,4.70
2023-04-30T12:12:55.698Z,5.47
2023-04-30T12:15:58.938Z,5.85
2023-04-30T12:19:00.314Z,5.88
2023-04-30T12:22:01.998Z,5.40
2023-04-30T12:25:09.087Z,6.47
2023-04-30T12:28:11.048Z,6.32
2023-04-30T12:31:12.377Z,6.55
2023-04-30T12:34:15.244Z,5.43
2023-04-30T12:37:16.990Z,5.67
2023-04-30T12:40:20.122Z,5.75
2023-04-30T12:43:21.516Z,7.28
2023-04-30T12:46:27.051Z,7.35
2023-04-30T12:49:30.126Z,6.25
2023-04-30T12:52:32.961Z,5.63
2023-04-30T12:55:37.031Z,5.57
2023-04-30T12:58:39.192Z,5.95
2023-04-30T13:01:44.898Z,6.03
2023-04-30T13:04:46.226Z,6.38
2023-04-30T13:07:49.224Z,7.27
2023-04-30T13:10:51.401Z,6.50
2023-04-30T13:13:54.529Z,5.90
2023-04-30T13:16:55.805Z,5.07
2023-04-30T13:19:57.490Z,5.80
2023-04-30T13:22:58.952Z,4.27
2023-04-30T13:26:09.292Z,5.73
2023-04-30T13:29:11.253Z,5.35
2023-04-30T13:32:12.557Z,6.15
2023-04-30T13:35:13.870Z,5.37
2023-04-30T13:38:15.258Z,5.93
2023-04-30T13:41:17.385Z,5.88
2023-04-30T13:44:18.692Z,5.35
2023-04-30T13:47:21.126Z,8.32
2023-04-30T13:50:22.429Z,6.17
2023-04-30T13:53:23.994Z,4.53
2023-04-30T13:56:26.151Z,6.20
2023-04-30T13:59:28.245Z,8.05
2023-04-30T14:02:29.828Z,7.18
2023-04-30T14:05:31.278Z,4.80
2023-04-30T14:08:33.121Z,6.43
2023-04-30T14:11:35.086Z,6.07
2023-04-30T14:14:39.149Z,6.82
2023-04-30T14:17:40.604Z,5.65
2023-04-30T14:20:42.061Z,5.17
2023-04-30T14:23:45.756Z,6.85
2023-04-30T14:26:47.876Z,6.55
2023-04-30T14:29:49.232Z,6.78
2023-04-30T14:32:50.513Z,8.25
2023-04-30T14:35:52.334Z,5.67
2023-04-30T14:38:53.929Z,6.72
2023-04-30T14:41:56.109Z,5.43
2023-04-30T14:44:57.521Z,6.28
2023-04-30T14:47:59.131Z,5.43
2023-04-30T14:51:00.635Z,5.77
2023-04-30T14:54:02.210Z,5.57
2023-04-30T14:57:04.932Z,5.88
2023-04-30T15:00:07.505Z,6.20
2023-04-30T15:03:09.014Z,6.20
2023-04-30T15:06:10.889Z,6.03
2023-04-30T15:09:13.063Z,6.45
2023-04-30T15:12:15.269Z,6.85
2023-04-30T15:15:18.784Z,6.95
2023-04-30T15:18:20.378Z,5.07
2023-04-30T15:21:21.829Z,6.80
2023-04-30T15:24:23.210Z,5.65
2023-04-30T15:27:26.904Z,7.37
2023-04-30T15:30:28.224Z,5.30
2023-04-30T15:33:30.754Z,4.88
2023-04-30T15:36:32.613Z,7.10
2023-04-30T15:39:34.460Z,5.07
2023-04-30T15:42:37.616Z,5.57
2023-04-30T15:45:39.041Z,6.88
2023-04-30T15:48:40.381Z,6.30
2023-04-30T15:51:41.876Z,5.93
2023-04-30T15:54:43.131Z,6.33
2023-04-30T15:58:01.867Z,4.97
2023-04-30T16:01:03.176Z,6.20
2023-04-30T16:04:04.796Z,6.60
2023-04-30T16:07:06.351Z,5.77
2023-04-30T16:10:09.699Z,5.23
2023-04-30T16:13:11.879Z,7.65
2023-04-30T16:16:13.701Z,4.50
2023-04-30T16:19:16.384Z,5.80
2023-04-30T16:22:17.886Z,6.63
2023-04-30T16:25:19.978Z,5.87
2023-04-30T16:28:22.934Z,5.95
2023-04-30T16:31:24.294Z,6.75
2023-04-30T16:34:25.602Z,7.93
2023-04-30T16:37:28.091Z,7.43
2023-04-30T16:40:30.149Z,6.70
2023-04-30T16:43:32.509Z,6.78
2023-04-30T16:46:34.405Z,6.32
2023-04-30T16:49:35.923Z,5.88
2023-04-30T16:52:37.310Z,8.77
2023-04-30T16:55:38.837Z,5.47
2023-04-30T16:58:40.942Z,6.13
2023-04-30T17:01:42.507Z,6.05
2023-04-30T17:04:43.890Z,5.43
2023-04-30T17:07:45.499Z,5.20
2023-04-30T17:10:47.303Z,5.63
2023-04-30T17:13:49.367Z,5.18
2023-04-30T17:16:50.763Z,5.75
2023-04-30T17:19:52.130Z,5.28
2023-04-30T17:22:55.360Z,5.50
2023-04-30T17:25:57.266Z,6.50
2023-04-30T17:28:59.315Z,4.78
2023-04-30T17:32:00.740Z,7.57
2023-04-30T17:35:02.862Z,4.50
2023-04-30T17:38:04.365Z,5.03
2023-04-30T17:41:06.022Z,4.73
2023-04-30T17:44:08.169Z,4.78
2023-04-30T17:47:12.468Z,5.20
2023-04-30T17:50:15.262Z,6.00
2023-04-30T17:53:16.638Z,8.00
2023-04-30T17:56:17.940Z,6.57
2023-04-30T17:59:19.929Z,8.27
2023-04-30T18:02:21.332Z,7.70
2023-04-30T18:05:22.697Z,6.22
2023-04-30T18:08:24.386Z,6.67
2023-04-30T18:11:25.680Z,6.83
2023-04-30T18:14:27.999Z,6.43
2023-04-30T18:17:29.315Z,7.57
2023-04-30T18:20:30.813Z,8.45
2023-04-30T18:23:32.159Z,6.93
2023-04-30T18:26:33.627Z,7.53
2023-04-30T18:29:36.341Z,7.85
2023-04-30T18:32:38.223Z,7.22
2023-04-30T18:35:39.750Z,6.93
2023-04-30T18:38:41.188Z,6.47
2023-04-30T18:41:45.429Z,5.87
2023-04-30T18:44:47.391Z,7.40
2023-04-30T18:47:48.849Z,5.65
2023-04-30T18:50:50.517Z,5.38
2023-04-30T18:53:52.088Z,5.87
2023-04-30T18:56:53.350Z,6.03
2023-04-30T18:59:55.885Z,6.35
2023-04-30T19:02:57.817Z,7.95
2023-04-30T19:05:59.309Z,6.63
2023-04-30T19:09:00.637Z,5.40
2023-04-30T19:12:03.021Z,6.27
2023-04-30T19:15:07.237Z,6.75
2023-04-30T19:18:12.398Z,5.10
2023-04-30T19:21:14.054Z,6.03
2023-04-30T19:24:15.660Z,6.97
2023-04-30T19:27:17.377Z,6.93
2023-04-30T19:30:23.678Z,6.63
2023-04-30T19:33:25.149Z,6.38
2023-04-30T19:36:26.609Z,6.35
2023-04-30T19:39:33.176Z,7.43
2023-04-30T19:42:34.484Z,6.97
2023-04-30T19:45:36.566Z,9.40
2023-04-30T19:48:37.864Z,9.73
2023-04-30T19:51:39.271Z,8.98
2023-04-30T19:54:44.573Z,9.13
2023-04-30T19:57:45.850Z,7.73
2023-04-30T20:00:48.074Z,7.95
2023-04-30T20:03:49.509Z,6.72
2023-04-30T20:06:56.193Z,8.73
2023-04-30T20:09:57.552Z,10.03
2023-04-30T20:12:59.189Z,8.53
2023-04-30T20:16:01.801Z,8.18
2023-04-30T20:19:03.466Z,7.97
2023-04-30T20:22:09.184Z,8.27
2023-04-30T20:25:10.552Z,8.70
2023-04-30T20:28:12.445Z,8.77
2023-04-30T20:31:14.418Z,8.73
2023-04-30T20:34:16.193Z,8.23
2023-04-30T20:37:17.498Z,8.63
2023-04-30T20:40:19.512Z,10.05
2023-04-30T20:43:20.792Z,10.57
2023-04-30T20:46:23.854Z,9.57
2023-04-30T20:49:26.453Z,12.63
2023-04-30T20:52:27.698Z,10.73
2023-04-30T20:55:29.307Z,11.43
2023-04-30T20:58:30.821Z,11.35
2023-04-30T21:01:33.291Z,10.55
2023-04-30T21:04:34.663Z,10.32
2023-04-30T21:07:36.096Z,10.00
2023-04-30T21:10:37.569Z,10.38
2023-04-30T21:13:38.990Z,11.80
2023-04-30T21:16:41.477Z,10.80
2023-04-30T21:19:43.152Z,11.88
2023-04-30T21:22:45.593Z,11.40
2023-04-30T21:25:47.079Z,14.32
2023-04-30T21:28:50.507Z,11.90
2023-04-30T21:31:54.336Z,11.50
2023-04-30T21:34:55.826Z,12.02
2023-04-30T21:37:57.101Z,14.13
2023-04-30T21:40:58.528Z,13.82
2023-04-30T21:43:59.986Z,13.30
2023-04-30T21:47:02.990Z,13.50
2023-04-30T21:50:05.328Z,14.75
2023-04-30T21:53:06.855Z,13.67
2023-04-30T21:56:08.374Z,14.93
2023-04-30T21:59:10.017Z,15.30
2023-04-30T22:02:22.715Z,14.18
2023-04-30T22:05:25.259Z,12.63
2023-04-30T22:08:27.204Z,15.00
2023-04-30T22:11:28.944Z,11.98
2023-04-30T22:14:30.387Z,12.65
2023-04-30T22:17:32.811Z,13.45
2023-04-30T22:20:34.550Z,18.07
2023-04-30T22:23:36.112Z,21.13
2023-04-30T22:26:37.378Z,23.23
2023-04-30T22:29:38.847Z,26.23
2023-04-30T22:32:41.530Z,20.60
2023-04-30T22:35:42.944Z,17.40
2023-04-30T22:38:44.230Z,15.65
2023-04-30T22:41:45.993Z,14.93
2023-04-30T22:44:48.119Z,15.80
2023-04-30T22:47:52.101Z,13.70
2023-04-30T22:50:54.704Z,12.57
2023-04-30T22:53:56.362Z,13.15
2023-04-30T22:56:59.183Z,15.15
2023-04-30T23:00:00.566Z,12.93
2023-04-30T23:03:03.090Z,13.37
2023-04-30T23:09:06.513Z,15.05
2023-04-30T23:12:08.648Z,19.13
2023-04-30T23:15:10.199Z,15.00
2023-04-30T23:18:12.581Z,15.83
2023-04-30T23:21:14.302Z,16.77
2023-04-30T23:24:15.921Z,19.75
2023-04-30T23:27:17.598Z,17.40
2023-04-30T23:30:19.429Z,16.90
2023-04-30T23:33:21.728Z,14.90
2023-04-30T23:36:23.353Z,18.50
2023-04-30T23:39:24.897Z,18.27
2023-04-30T23:42:26.429Z,17.75
2023-04-30T23:45:28.242Z,21.30
2023-04-30T23:48:30.491Z,19.03
2023-04-30T23:51:32.788Z,17.80
2023-04-30T23:54:35.080Z,18.10
2023-04-30T23:57:36.463Z,16.02
